East Springfield, Pennsylvania
Current Conditions -  °F | °C
As of 5:51 AM on Saturday 22 Nov 2014 (Local Time) from KERI Reporting Station
Clear Clear  
Wind Chill: 15°   Ceiling: Unl
Heat Index: 27°   Visibility: 10mi
Dew Point:   Wind: 16mph
Humidity: 45%   Direction: 170°S
Pressure: 30.25"   Gusts: NA
Location:  41.96°N, 80.41°W
Report Text: KERI 221051Z 17014KT 10SM CLR M03/M13 A3025 RMK AO2 SLP254 T10281133
Loading
Personal Weather Stations






























Interactive Weather Map New forecast layout! Learn more

10-Day Weather Forecast

Advertisements
Track Severe Weather on mobile